Time;durP1;ratioP1;P1;durP2;ratioP2;P2;SDS_P1;SDS_P2;PMS_P1;PMS_P2;Temp;Humidity;BMP_temperature;BMP_pressure;BME280_temperature;BME280_humidity;BME280_pressure;Samples;Min_cycle;Max_cycle;Signal;HPM_P1;HPM_P2
2023/01/12 00:02:32;;;;;;;;;;;;;;;5.20;66.85;100870.59;5395715;32;33707;-77
2023/01/12 00:05:34;;;;;;;;;;;;;;;5.00;68.34;100879.47;5405053;32;34253;-84
2023/01/12 00:08:36;;;;;;;;;;;;;;;5.00;67.83;100886.41;5399297;32;34490;-81
2023/01/12 00:11:38;;;;;;;;;;;;;;;5.18;68.31;100886.25;5399521;32;33616;-77
2023/01/12 00:14:40;;;;;;;;;;;;;;;4.67;69.50;100896.22;5408666;32;33936;-83
2023/01/12 00:17:42;;;;;;;;;;;;;;;4.78;69.71;100890.94;5404532;32;33488;-77
2023/01/12 00:20:47;;;;;;;;;;;;;;;4.79;69.58;100890.06;5420308;32;33589;-82
2023/01/12 00:23:49;;;;;;;;;;;;;;;5.16;67.56;100888.03;5405356;32;44956;-76
2023/01/12 00:26:51;;;;;;;;;;;;;;;4.96;67.88;100889.91;5402433;32;33725;-77
2023/01/12 00:29:53;;;;;;;;;;;;;;;5.07;68.59;100888.94;5401856;32;33436;-78
2023/01/12 00:32:55;;;;;;;;;;;;;;;6.17;64.08;100871.25;5399055;32;33797;-76
2023/01/12 00:36:00;;;;;;;;;;;;;;;6.15;63.35;100875.66;5416830;32;33407;-78
2023/01/12 00:39:02;;;;;;;;;;;;;;;5.56;65.28;100887.63;5405536;32;34343;-77
2023/01/12 00:45:25;;;;;;;;;;;;;;;5.60;67.35;100876.25;5419654;32;45056;-77
2023/01/12 00:48:26;;;;;;;;;;;;;;;5.69;66.34;100876.19;5392239;32;34261;-78
2023/01/12 00:51:28;;;;;;;;;;;;;;;5.67;66.33;100873.59;5394494;32;33584;-77
2023/01/12 00:54:33;;;;;;;;;;;;;;;6.21;65.17;100889.47;5385607;32;34674;-77
2023/01/12 00:57:35;;;;;;;;;;;;;;;5.66;67.06;100897.06;5417557;32;33694;-84
2023/01/12 01:00:37;;;;;;;;;;;;;;;5.44;67.82;100892.06;5412186;32;33703;-76
2023/01/12 01:03:39;;;;;;;;;;;;;;;5.47;67.14;100893.78;5401260;32;33848;-76
2023/01/12 01:06:41;;;;;;;;;;;;;;;5.27;68.25;100888.75;5415278;32;34140;-77
2023/01/12 01:09:43;;;;;;;;;;;;;;;5.34;68.08;100897.38;5391437;32;33901;-77
2023/01/12 01:12:45;;;;;;;;;;;;;;;6.27;65.26;100904.19;5416930;32;33817;-76
2023/01/12 01:15:47;;;;;;;;;;;;;;;6.54;64.36;100910.78;5365351;32;941909;-77
2023/01/12 01:18:49;;;;;;;;;;;;;;;6.66;63.64;100902.78;5419574;32;34576;-82
2023/01/12 01:21:51;;;;;;;;;;;;;;;6.84;63.29;100904.25;5412618;32;33977;-77
2023/01/12 01:24:53;;;;;;;;;;;;;;;6.17;64.62;100907.81;5411095;32;33775;-78
2023/01/12 01:27:55;;;;;;;;;;;;;;;7.02;62.38;100916.19;5427358;32;32402;-77
2023/01/12 01:31:08;;;;;;;;;;;;;;;6.48;63.40;100916.97;5410564;32;33604;-76
2023/01/12 01:34:10;;;;;;;;;;;;;;;5.65;67.04;100924.87;5421277;32;32479;-81
2023/01/12 01:37:12;;;;;;;;;;;;;;;6.84;63.31;100925.16;5397579;32;34043;-77
2023/01/12 01:40:14;;;;;;;;;;;;;;;6.48;64.59;100932.63;5417610;32;33673;-85
2023/01/12 01:43:16;;;;;;;;;;;;;;;6.56;63.64;100929.91;5415240;32;44375;-79
2023/01/12 01:46:26;;;;;;;;;;;;;;;7.25;61.52;100931.47;5411711;32;34380;-83
2023/01/12 01:49:29;;;;;;;;;;;;;;;7.20;61.10;100930.66;5416166;32;33235;-77
2023/01/12 01:52:32;;;;;;;;;;;;;;;6.78;61.98;100931.34;5389491;32;34521;-75
2023/01/12 01:55:36;;;;;;;;;;;;;;;7.22;61.97;100921.94;5409917;32;34512;-77
2023/01/12 01:58:39;;;;;;;;;;;;;;;7.21;61.96;100922.84;5391844;32;33419;-83
2023/01/12 02:01:42;;;;;;;;;;;;;;;7.40;61.26;100910.28;5412440;32;34491;-78
2023/01/12 02:04:44;;;;;;;;;;;;;;;7.40;61.43;100920.72;5415519;32;34256;-83
2023/01/12 02:07:46;;;;;;;;;;;;;;;7.21;62.54;100930.66;5400474;32;45502;-82
2023/01/12 02:10:49;;;;;;;;;;;;;;;5.70;67.84;100940.50;5400999;32;33972;-82
2023/01/12 02:17:21;;;;;;;;;;;;;;;6.12;68.85;100930.50;5416809;32;33832;-77
2023/01/12 02:20:39;;;;;;;;;;;;;;;5.64;70.02;100930.12;5404444;32;45489;-83
2023/01/12 02:23:44;;;;;;;;;;;;;;;6.46;67.25;100937.00;5405106;32;32986;-76
2023/01/12 02:27:05;;;;;;;;;;;;;;;6.47;66.99;100945.72;5416139;32;44663;-77
2023/01/12 02:30:13;;;;;;;;;;;;;;;6.40;66.60;100929.25;5400689;32;33789;-84
2023/01/12 02:33:15;;;;;;;;;;;;;;;6.13;68.50;100938.31;5412966;32;33544;-76
2023/01/12 02:36:25;;;;;;;;;;;;;;;6.72;66.03;100927.94;5395206;32;45179;-83
2023/01/12 02:39:58;;;;;;;;;;;;;;;6.95;65.42;100927.59;5401844;32;34222;-78
2023/01/12 02:43:00;;;;;;;;;;;;;;;6.98;64.68;100917.09;5404191;32;35152;-83
2023/01/12 02:46:05;;;;;;;;;;;;;;;6.08;67.54;100920.97;5401783;32;33695;-76
2023/01/12 02:49:08;;;;;;;;;;;;;;;7.46;63.25;100923.25;5416221;32;32943;-83
2023/01/12 02:52:12;;;;;;;;;;;;;;;7.53;62.48;100916.16;5386758;32;33775;-83
2023/01/12 02:55:14;;;;;;;;;;;;;;;6.75;64.49;100913.06;5392590;32;33123;-77
2023/01/12 02:58:16;;;;;;;;;;;;;;;6.51;67.49;100916.94;5419561;32;37051;-77
2023/01/12 03:01:19;;;;;;;;;;;;;;;6.66;66.03;100899.31;5394878;32;45013;-77
2023/01/12 03:04:21;;;;;;;;;;;;;;;6.67;66.61;100899.28;5417364;32;34441;-76
2023/01/12 03:07:28;;;;;;;;;;;;;;;7.14;64.79;100912.47;5401752;32;34147;-85
2023/01/12 03:10:36;;;;;;;;;;;;;;;6.34;67.44;100907.59;5405871;32;33474;-84
2023/01/12 03:13:46;;;;;;;;;;;;;;;5.96;69.00;100909.78;5413688;32;34498;-83
2023/01/12 03:16:48;;;;;;;;;;;;;;;6.11;69.44;100907.87;5398719;32;46606;-77
2023/01/12 03:19:51;;;;;;;;;;;;;;;6.45;68.57;100901.34;5426060;32;34529;-83
2023/01/12 03:22:54;;;;;;;;;;;;;;;6.51;66.77;100903.00;5408101;32;33143;-76
2023/01/12 03:25:56;;;;;;;;;;;;;;;6.65;68.11;100895.84;5411452;32;34355;-80
2023/01/12 03:29:09;;;;;;;;;;;;;;;6.72;65.85;100889.62;5403758;32;33493;-76
2023/01/12 03:32:11;;;;;;;;;;;;;;;6.55;67.00;100898.59;5394474;32;32906;-83
2023/01/12 03:35:14;;;;;;;;;;;;;;;7.26;64.63;100892.22;5421916;32;33961;-78
2023/01/12 03:38:23;;;;;;;;;;;;;;;7.43;63.00;100891.06;5405871;32;36271;-84
2023/01/12 03:41:26;;;;;;;;;;;;;;;7.20;62.54;100891.47;5414641;32;33850;-76
2023/01/12 03:44:43;;;;;;;;;;;;;;;7.70;61.93;100892.31;5405939;32;33796;-83
2023/01/12 03:47:45;;;;;;;;;;;;;;;7.45;61.88;100900.59;5403927;32;33890;-76
2023/01/12 03:50:48;;;;;;;;;;;;;;;7.45;62.34;100895.38;5401732;32;43160;-76
2023/01/12 03:53:50;;;;;;;;;;;;;;;7.13;63.39;100893.31;5385605;32;34766;-77
2023/01/12 03:56:53;;;;;;;;;;;;;;;7.11;63.59;100894.25;5401104;32;33927;-76
2023/01/12 03:59:55;;;;;;;;;;;;;;;6.83;65.05;100896.41;5399217;32;34404;-76
2023/01/12 04:03:16;;;;;;;;;;;;;;;6.86;65.75;100896.38;5424491;32;33580;-77
2023/01/12 04:06:18;;;;;;;;;;;;;;;7.27;64.45;100893.06;5399609;32;45505;-77
2023/01/12 04:09:21;;;;;;;;;;;;;;;6.59;67.51;100885.47;5390453;32;34090;-76
2023/01/12 04:12:23;;;;;;;;;;;;;;;7.62;64.50;100888.97;5413711;32;33447;-76
2023/01/12 04:15:25;;;;;;;;;;;;;;;7.90;62.06;100878.81;5399905;32;34572;-77
2023/01/12 04:18:27;;;;;;;;;;;;;;;7.90;62.16;100878.81;5418908;32;33528;-76
2023/01/12 04:24:50;;;;;;;;;;;;;;;7.66;62.16;100888.00;5413016;32;45335;-77
2023/01/12 04:27:55;;;;;;;;;;;;;;;7.32;64.35;100896.47;5412414;32;34202;-77
2023/01/12 04:30:57;;;;;;;;;;;;;;;7.81;62.21;100888.59;5388511;32;32871;-77
2023/01/12 04:33:59;;;;;;;;;;;;;;;7.46;62.82;100878.78;5412833;32;34735;-77
2023/01/12 04:37:01;;;;;;;;;;;;;;;7.57;63.67;100887.28;5414683;32;34139;-83
2023/01/12 04:40:03;;;;;;;;;;;;;;;7.57;62.88;100892.53;5421571;32;33883;-83
2023/01/12 04:43:08;;;;;;;;;;;;;;;7.06;65.88;100900.41;5402144;32;32766;-83
2023/01/12 04:46:10;;;;;;;;;;;;;;;7.06;65.87;100895.16;5394935;32;34512;-83
2023/01/12 04:49:13;;;;;;;;;;;;;;;6.97;66.43;100897.09;5422522;32;31747;-77
2023/01/12 04:52:15;;;;;;;;;;;;;;;7.75;62.05;100880.00;5380538;32;33685;-81
2023/01/12 04:55:17;;;;;;;;;;;;;;;8.50;60.13;100886.28;5419299;32;46099;-84
2023/01/12 04:58:19;;;;;;;;;;;;;;;8.07;60.94;100885.44;5408063;32;33682;-83
2023/01/12 05:01:21;;;;;;;;;;;;;;;7.88;62.08;100897.19;5412503;32;33946;-83
2023/01/12 05:04:24;;;;;;;;;;;;;;;7.88;62.45;100894.56;5405045;32;33933;-77
2023/01/12 05:07:26;;;;;;;;;;;;;;;7.14;64.21;100907.25;5400357;32;34425;-78
2023/01/12 05:10:29;;;;;;;;;;;;;;;7.47;63.90;100906.69;5405524;32;33428;-77
2023/01/12 05:13:30;;;;;;;;;;;;;;;7.89;62.39;100898.91;5409746;32;34266;-82
2023/01/12 05:16:32;;;;;;;;;;;;;;;6.71;66.16;100905.34;5400692;32;34697;-83
2023/01/12 05:19:35;;;;;;;;;;;;;;;7.87;62.69;100901.56;5410441;32;34585;-77
2023/01/12 05:22:36;;;;;;;;;;;;;;;7.55;63.27;100907.41;5401881;32;33032;-76
2023/01/12 05:25:38;;;;;;;;;;;;;;;8.03;62.48;100904.72;5387545;32;34548;-84
2023/01/12 05:28:40;;;;;;;;;;;;;;;7.85;62.42;100889.38;5413222;32;32317;-77
2023/01/12 05:31:42;;;;;;;;;;;;;;;7.82;62.89;100903.38;5414554;32;36046;-76
2023/01/12 05:34:44;;;;;;;;;;;;;;;7.49;64.78;100909.25;5410172;32;34453;-78
2023/01/12 05:37:46;;;;;;;;;;;;;;;7.37;66.17;100915.56;5416691;32;43857;-76
2023/01/12 05:40:48;;;;;;;;;;;;;;;7.59;65.45;100916.91;5391042;32;34299;-83
2023/01/12 05:43:50;;;;;;;;;;;;;;;7.69;65.18;100921.97;5421462;32;34942;-77
2023/01/12 05:46:52;;;;;;;;;;;;;;;7.62;65.22;100915.13;5402527;32;35037;-77
2023/01/12 05:49:54;;;;;;;;;;;;;;;7.11;67.18;100923.00;5405060;32;33030;-82
2023/01/12 05:52:56;;;;;;;;;;;;;;;7.33;68.50;100913.88;5397348;32;32756;-81
2023/01/12 05:55:58;;;;;;;;;;;;;;;7.18;68.03;100924.63;5403375;32;34209;-76
2023/01/12 05:59:00;;;;;;;;;;;;;;;7.57;67.53;100917.81;5415769;32;35571;-76
2023/01/12 06:02:02;;;;;;;;;;;;;;;7.17;68.50;100922.91;5383587;32;34105;-76
2023/01/12 06:05:08;;;;;;;;;;;;;;;6.64;71.95;100915.00;5413777;32;33769;-77
2023/01/12 06:08:10;;;;;;;;;;;;;;;7.31;70.00;100923.53;5389914;32;34155;-72
2023/01/12 06:14:32;;;;;;;;;;;;;;;7.74;67.71;100915.78;5418016;32;33184;-69
2023/01/12 06:17:34;;;;;;;;;;;;;;;7.22;69.83;100921.06;5402254;32;33808;-70
2023/01/12 06:20:36;;;;;;;;;;;;;;;7.13;71.59;100922.06;5421645;32;33106;-71
2023/01/12 06:23:38;;;;;;;;;;;;;;;7.30;70.35;100919.19;5404765;32;34282;-86
2023/01/12 06:26:43;;;;;;;;;;;;;;;7.13;70.52;100926.44;5407370;32;33082;-73
2023/01/12 06:29:46;;;;;;;;;;;;;;;8.01;67.26;100913.50;5401184;32;32303;-85
2023/01/12 06:32:48;;;;;;;;;;;;;;;8.47;64.60;100933.53;5400749;32;45359;-83
2023/01/12 06:35:51;;;;;;;;;;;;;;;6.91;69.79;100946.84;5430319;32;35103;-87
2023/01/12 06:38:53;;;;;;;;;;;;;;;6.89;70.46;100948.59;5391753;32;33005;-77
2023/01/12 06:45:15;;;;;;;;;;;;;;;6.78;72.16;100952.25;5404239;32;33143;-82
2023/01/12 06:48:19;;;;;;;;;;;;;;;7.73;68.39;100953.28;5403889;32;44362;-86
2023/01/12 06:51:22;;;;;;;;;;;;;;;8.06;66.17;100964.88;5399249;32;34260;-68
2023/01/12 06:54:24;;;;;;;;;;;;;;;7.52;67.37;100964.97;5399998;32;32988;-74
2023/01/12 06:57:26;;;;;;;;;;;;;;;7.38;69.34;100969.59;5414695;32;33009;-78
2023/01/12 07:00:28;;;;;;;;;;;;;;;8.01;66.70;100971.94;5401609;32;33510;-69
2023/01/12 07:03:30;;;;;;;;;;;;;;;8.33;64.41;100970.44;5409657;32;35583;-76
2023/01/12 07:06:32;;;;;;;;;;;;;;;7.74;66.29;100970.72;5407132;32;32581;-70
2023/01/12 07:09:36;;;;;;;;;;;;;;;7.20;68.70;100977.72;5392947;32;32087;-75
2023/01/12 07:12:39;;;;;;;;;;;;;;;8.30;63.82;100978.34;5404390;32;32809;-75
2023/01/12 07:15:41;;;;;;;;;;;;;;;8.42;62.97;100986.00;5403594;32;32846;-85
2023/01/12 07:18:45;;;;;;;;;;;;;;;8.63;61.15;100992.53;5411447;32;33167;-67
2023/01/12 07:21:48;;;;;;;;;;;;;;;8.33;62.13;100992.25;5405321;32;44417;-72
2023/01/12 07:24:50;;;;;;;;;;;;;;;8.30;61.28;100999.31;5412276;32;33100;-74
2023/01/12 07:27:54;;;;;;;;;;;;;;;7.98;63.12;100992.94;5385151;32;34677;-77
2023/01/12 07:31:00;;;;;;;;;;;;;;;8.55;61.59;100984.84;5395291;32;34091;-77
2023/01/12 07:34:02;;;;;;;;;;;;;;;8.29;61.52;100982.72;5401797;32;32968;-73
2023/01/12 07:37:05;;;;;;;;;;;;;;;8.72;61.00;100988.88;5394822;32;33614;-73
2023/01/12 07:40:07;;;;;;;;;;;;;;;8.70;60.81;100988.91;5412788;32;36113;-80
2023/01/12 07:43:10;;;;;;;;;;;;;;;8.39;61.65;100999.16;5406492;32;33082;-74
2023/01/12 07:46:12;;;;;;;;;;;;;;;8.55;61.81;101000.56;5405164;32;34439;-72
2023/01/12 07:49:14;;;;;;;;;;;;;;;8.89;60.23;100999.84;5408579;32;34543;-83
2023/01/12 07:52:17;;;;;;;;;;;;;;;7.52;65.84;101017.28;5387383;32;43586;-85
2023/01/12 07:55:20;;;;;;;;;;;;;;;7.63;64.92;101013.66;5405224;32;34451;-70
2023/01/12 07:58:21;;;;;;;;;;;;;;;7.59;66.69;101011.06;5403931;32;33424;-75
2023/01/12 08:01:24;;;;;;;;;;;;;;;8.27;63.40;101000.25;5418007;32;36249;-89
2023/01/12 08:04:26;;;;;;;;;;;;;;;8.62;63.01;101007.41;5390398;32;33001;-78
2023/01/12 08:07:30;;;;;;;;;;;;;;;8.27;63.34;101013.34;5397940;32;32333;-91
2023/01/12 08:10:32;;;;;;;;;;;;;;;8.59;63.27;101017.09;5418079;32;32771;-89
2023/01/12 08:13:34;;;;;;;;;;;;;;;8.73;63.01;101011.56;5412518;32;33017;-77
2023/01/12 08:16:37;;;;;;;;;;;;;;;7.47;67.20;101013.91;5410516;32;33097;-76
2023/01/12 08:19:40;;;;;;;;;;;;;;;8.54;63.81;101016.31;5402392;32;35028;-73
2023/01/12 08:22:43;;;;;;;;;;;;;;;8.31;64.25;101024.63;5418509;32;33121;-72
2023/01/12 08:25:47;;;;;;;;;;;;;;;8.68;62.71;101023.00;5405875;32;32962;-74
2023/01/12 08:28:50;;;;;;;;;;;;;;;8.26;64.41;101014.25;5402752;32;45151;-72
2023/01/12 08:31:52;;;;;;;;;;;;;;;8.87;62.99;101014.75;5416184;32;36325;-72
2023/01/12 08:34:55;;;;;;;;;;;;;;;9.32;61.53;101009.34;5375474;32;34074;-73
2023/01/12 08:38:01;;;;;;;;;;;;;;;10.28;58.25;101009.50;5396529;32;32836;-73
2023/01/12 08:44:26;;;;;;;;;;;;;;;9.77;59.81;101013.44;5407348;32;43284;-71
2023/01/12 08:47:29;;;;;;;;;;;;;;;9.68;59.28;101012.81;5384349;32;33367;-72
2023/01/12 08:50:31;;;;;;;;;;;;;;;8.21;64.18;101013.47;5380793;32;33640;-72
2023/01/12 08:53:33;;;;;;;;;;;;;;;8.81;64.12;101002.63;5407172;32;36142;-71
2023/01/12 08:56:36;;;;;;;;;;;;;;;8.87;62.84;101015.59;5404547;32;33061;-71
2023/01/12 08:59:38;;;;;;;;;;;;;;;9.14;63.34;101011.47;5405131;32;34349;-71
2023/01/12 09:02:40;;;;;;;;;;;;;;;9.90;60.41;101013.13;5404539;32;32946;-71
2023/01/12 09:05:43;;;;;;;;;;;;;;;10.04;59.26;101006.59;5396476;32;33167;-73
2023/01/12 09:08:45;;;;;;;;;;;;;;;9.96;59.88;101011.19;5399851;32;34458;-72
2023/01/12 09:11:48;;;;;;;;;;;;;;;9.44;62.95;101019.53;5403702;32;45544;-72
2023/01/12 09:14:52;;;;;;;;;;;;;;;9.60;61.51;101015.66;5417825;32;32017;-74
2023/01/12 09:17:54;;;;;;;;;;;;;;;9.53;60.99;101029.78;5395702;32;34831;-71
2023/01/12 09:21:03;;;;;;;;;;;;;;;9.54;62.45;101021.03;5414855;32;33201;-72
2023/01/12 09:24:06;;;;;;;;;;;;;;;9.16;63.89;101012.34;5392446;32;33018;-71
2023/01/12 09:27:09;;;;;;;;;;;;;;;9.47;63.19;101019.47;5402620;32;31937;-72
2023/01/12 09:30:11;;;;;;;;;;;;;;;10.28;61.25;101015.59;5415739;32;33046;-71
2023/01/12 09:33:13;;;;;;;;;;;;;;;11.05;58.47;101014.22;5387046;32;34302;-70
2023/01/12 09:36:16;;;;;;;;;;;;;;;10.47;59.91;101010.69;5414156;32;32394;-73
2023/01/12 09:39:18;;;;;;;;;;;;;;;10.40;60.63;101013.53;5410856;32;44877;-88
2023/01/12 09:49:11;;;;;;;;;;;;;;;11.21;57.93;101008.47;5401537;32;33373;-71
2023/01/12 09:52:17;;;;;;;;;;;;;;;10.82;59.74;101009.66;5396257;32;31990;-73
2023/01/12 09:55:23;;;;;;;;;;;;;;;10.96;59.76;101005.75;5402577;32;44938;-71
2023/01/12 09:58:44;;;;;;;;;;;;;;;10.68;61.15;100998.69;5414158;32;32908;-71
2023/01/12 10:01:46;;;;;;;;;;;;;;;10.75;61.00;100997.59;5404090;32;44147;-72
2023/01/12 10:04:48;;;;;;;;;;;;;;;10.88;60.76;100999.84;5397645;32;34751;-71
2023/01/12 10:07:52;;;;;;;;;;;;;;;10.85;61.14;100996.41;5415189;32;34287;-71
2023/01/12 10:10:58;;;;;;;;;;;;;;;9.63;65.78;100998.94;5398674;32;32972;-72
2023/01/12 10:14:18;;;;;;;;;;;;;;;9.71;64.17;100997.84;5416107;32;32839;-72
2023/01/12 10:17:24;;;;;;;;;;;;;;;10.47;61.47;100992.28;5407563;32;44102;-71
2023/01/12 10:20:32;;;;;;;;;;;;;;;9.94;64.00;100993.75;5409059;32;34085;-86
2023/01/12 10:23:34;;;;;;;;;;;;;;;10.99;61.18;100989.87;5423576;32;33167;-85
2023/01/12 10:26:39;;;;;;;;;;;;;;;10.53;63.42;100986.00;5408410;32;33169;-88
2023/01/12 10:29:41;;;;;;;;;;;;;;;10.26;63.76;100992.91;5420833;32;32974;-71
2023/01/12 10:32:43;;;;;;;;;;;;;;;10.07;63.04;100995.16;5392418;32;32949;-87
2023/01/12 10:35:56;;;;;;;;;;;;;;;11.11;60.49;100984.22;5408958;32;33795;-71
2023/01/12 10:38:59;;;;;;;;;;;;;;;11.35;59.59;100980.81;5410490;32;34773;-73
2023/01/12 10:45:40;;;;;;;;;;;;;;;11.21;59.06;100982.19;5373795;32;33156;-86
2023/01/12 10:48:45;;;;;;;;;;;;;;;11.92;57.80;100973.66;5404721;32;31533;-69
2023/01/12 10:51:49;;;;;;;;;;;;;;;11.83;57.32;100969.53;5398979;32;44475;-80
2023/01/12 10:54:51;;;;;;;;;;;;;;;10.97;59.83;100974.12;5397187;32;33165;-86
2023/01/12 10:57:57;;;;;;;;;;;;;;;10.63;61.86;100970.84;5405775;32;32757;-87
2023/01/12 11:00:59;;;;;;;;;;;;;;;12.17;57.22;100955.16;5418303;32;34715;-69
2023/01/12 11:04:04;;;;;;;;;;;;;;;10.85;60.21;100959.59;5405233;32;34022;-82
2023/01/12 11:07:07;;;;;;;;;;;;;;;11.62;58.90;100951.81;5407383;32;32917;-74
2023/01/12 11:10:19;;;;;;;;;;;;;;;11.01;59.93;100954.72;5401394;32;32918;-72
2023/01/12 11:13:39;;;;;;;;;;;;;;;10.98;60.88;100956.59;5406443;32;44574;-81
2023/01/12 11:16:43;;;;;;;;;;;;;;;11.53;59.71;100947.75;5414352;32;34057;-79
2023/01/12 11:19:45;;;;;;;;;;;;;;;11.30;59.61;100943.25;5402233;32;34748;-76
2023/01/12 11:22:48;;;;;;;;;;;;;;;11.62;58.59;100936.03;5414811;32;43614;-73
2023/01/12 11:25:51;;;;;;;;;;;;;;;11.74;58.47;100930.34;5399846;32;33217;-69
2023/01/12 11:28:55;;;;;;;;;;;;;;;10.78;61.13;100931.78;5398433;32;34124;-69
2023/01/12 11:31:59;;;;;;;;;;;;;;;11.30;60.10;100929.22;5410903;32;32047;-74
2023/01/12 11:35:05;;;;;;;;;;;;;;;12.11;57.14;100936.97;5405127;32;33191;-72
2023/01/12 11:38:12;;;;;;;;;;;;;;;10.82;60.29;100943.94;5402348;32;33043;-77
2023/01/12 11:41:21;;;;;;;;;;;;;;;11.33;60.16;100932.63;5403846;32;34149;-74
2023/01/12 11:44:25;;;;;;;;;;;;;;;11.57;58.66;100919.53;5399092;32;43983;-76
2023/01/12 11:47:29;;;;;;;;;;;;;;;11.35;59.04;100919.41;5395012;32;33678;-72
2023/01/12 11:50:34;;;;;;;;;;;;;;;11.73;57.81;100927.78;5388283;32;32873;-78
2023/01/12 11:53:36;;;;;;;;;;;;;;;11.12;58.74;100928.06;5401090;32;33070;-85
2023/01/12 11:56:41;;;;;;;;;;;;;;;11.96;56.92;100919.06;5405692;32;33239;-81
2023/01/12 11:59:49;;;;;;;;;;;;;;;11.75;57.41;100921.53;5398024;32;35531;-81
2023/01/12 12:03:06;;;;;;;;;;;;;;;11.64;56.48;100915.75;5399409;32;44865;-80
2023/01/12 12:06:28;;;;;;;;;;;;;;;11.82;56.65;100916.94;5400013;32;32852;-81
2023/01/12 12:09:34;;;;;;;;;;;;;;;11.63;57.94;100912.28;5376497;32;33070;-75
2023/01/12 12:12:39;;;;;;;;;;;;;;;11.43;57.79;100906.00;5396199;32;32225;-81
2023/01/12 12:16:04;;;;;;;;;;;;;;;11.76;56.57;100896.91;5421500;32;32887;-82
2023/01/12 12:19:26;;;;;;;;;;;;;;;12.43;54.91;100915.53;5389199;32;33657;-84
2023/01/12 12:22:34;;;;;;;;;;;;;;;12.66;54.59;100908.50;5401273;32;32966;-82
2023/01/12 12:25:39;;;;;;;;;;;;;;;12.08;56.08;100895.75;5421395;32;34479;-74
2023/01/12 12:28:41;;;;;;;;;;;;;;;13.31;51.90;100894.41;5402139;32;33890;-69
2023/01/12 12:31:48;;;;;;;;;;;;;;;12.64;54.29;100894.50;5412858;32;34245;-67
2023/01/12 12:35:09;;;;;;;;;;;;;;;13.17;53.02;100886.19;5405729;32;45285;-76
2023/01/12 12:38:21;;;;;;;;;;;;;;;13.97;50.23;100884.44;5403180;32;33235;-76
2023/01/12 12:45:15;;;;;;;;;;;;;;;13.31;51.91;100896.19;5404255;32;44344;-76
2023/01/12 12:48:19;;;;;;;;;;;;;;;13.48;50.39;100896.34;5399670;32;44554;-76
2023/01/12 12:51:23;;;;;;;;;;;;;;;12.36;53.57;100906.12;5400387;32;33153;-71
2023/01/12 12:54:25;;;;;;;;;;;;;;;12.53;53.63;100899.34;5405073;32;34280;-75
2023/01/12 12:57:27;;;;;;;;;;;;;;;12.17;54.40;100902.44;5402233;32;35732;-79
2023/01/12 13:00:39;;;;;;;;;;;;;;;11.70;56.14;100897.13;5392984;32;33008;-76
2023/01/12 13:03:41;;;;;;;;;;;;;;;12.14;55.48;100892.03;5394614;32;33741;-74
2023/01/12 13:06:46;;;;;;;;;;;;;;;13.48;52.37;100886.66;5392987;32;32606;-75
2023/01/12 13:09:48;;;;;;;;;;;;;;;12.96;52.45;100878.25;5391000;32;44786;-73
2023/01/12 13:12:58;;;;;;;;;;;;;;;13.60;51.24;100881.75;5418586;32;34338;-71
2023/01/12 13:16:18;;;;;;;;;;;;;;;13.54;49.89;100883.75;5407059;32;34705;-70
2023/01/12 13:19:33;;;;;;;;;;;;;;;12.35;53.37;100890.34;5398775;32;45140;-74
2023/01/12 13:22:35;;;;;;;;;;;;;;;12.74;52.55;100891.44;5408010;32;32916;-71
2023/01/12 13:25:37;;;;;;;;;;;;;;;12.04;53.74;100890.66;5405836;32;33024;-75
2023/01/12 13:28:39;;;;;;;;;;;;;;;12.15;54.23;100889.34;5421096;32;33145;-75
2023/01/12 13:31:41;;;;;;;;;;;;;;;11.77;55.17;100885.44;5401785;32;34641;-75
2023/01/12 13:34:45;;;;;;;;;;;;;;;11.50;57.03;100883.81;5419478;32;32959;-74
2023/01/12 13:37:47;;;;;;;;;;;;;;;11.24;57.16;100890.81;5402828;32;44538;-79
2023/01/12 13:40:49;;;;;;;;;;;;;;;12.40;54.49;100896.31;5417687;32;34733;-76
2023/01/12 13:43:57;;;;;;;;;;;;;;;12.54;53.81;100896.62;5410921;32;33788;-82
2023/01/12 13:47:22;;;;;;;;;;;;;;;11.84;55.84;100900.16;5408527;32;32970;-80
2023/01/12 13:50:25;;;;;;;;;;;;;;;11.24;57.92;100895.22;5404654;32;44909;-80
2023/01/12 13:53:28;;;;;;;;;;;;;;;11.35;57.41;100893.97;5396734;32;33029;-72
2023/01/12 13:56:30;;;;;;;;;;;;;;;11.40;57.51;100899.06;5402678;32;32969;-76
2023/01/12 13:59:33;;;;;;;;;;;;;;;10.77;59.86;100906.41;5408971;32;33893;-69
2023/01/12 14:02:35;;;;;;;;;;;;;;;11.38;58.21;100896.47;5405847;32;34033;-81
2023/01/12 14:05:38;;;;;;;;;;;;;;;13.27;55.61;100891.06;5397686;32;33528;-84
2023/01/12 14:08:59;;;;;;;;;;;;;;;15.41;47.41;100877.56;5391320;32;33764;-70
2023/01/12 14:12:01;;;;;;;;;;;;;;;16.57;44.58;100887.25;5417994;32;33103;-72
2023/01/12 14:18:40;;;;;;;;;;;;;;;19.31;37.59;100879.19;5410610;32;34745;-82
2023/01/12 14:21:44;;;;;;;;;;;;;;;20.21;35.20;100874.72;5415275;32;33152;-85
2023/01/12 14:24:46;;;;;;;;;;;;;;;18.62;38.88;100874.91;5381419;32;33744;-76
2023/01/12 14:27:48;;;;;;;;;;;;;;;18.91;37.44;100875.66;5416550;32;43188;-79
2023/01/12 14:30:51;;;;;;;;;;;;;;;17.63;39.53;100876.63;5402123;32;34305;-78
2023/01/12 14:33:54;;;;;;;;;;;;;;;17.08;41.05;100871.97;5398999;32;33022;-79
2023/01/12 14:36:56;;;;;;;;;;;;;;;17.11;40.45;100866.47;5410544;32;32878;-72
2023/01/12 14:39:58;;;;;;;;;;;;;;;16.16;41.82;100876.25;5391919;32;33149;-84
2023/01/12 14:46:25;;;;;;;;;;;;;;;14.01;47.05;100872.84;5401707;32;44405;-72
2023/01/12 14:49:28;;;;;;;;;;;;;;;14.01;48.52;100870.19;5400051;32;34212;-73
2023/01/12 14:52:31;;;;;;;;;;;;;;;13.67;48.68;100859.44;5382898;32;32950;-84
2023/01/12 14:55:40;;;;;;;;;;;;;;;12.81;51.08;100867.44;5406314;32;34294;-79
2023/01/12 14:58:43;;;;;;;;;;;;;;;12.50;51.98;100867.84;5409746;32;34275;-87
2023/01/12 15:01:48;;;;;;;;;;;;;;;12.56;51.92;100867.56;5399177;32;45010;-75
2023/01/12 15:05:08;;;;;;;;;;;;;;;12.27;52.65;100866.94;5401673;32;33161;-75
2023/01/12 15:08:11;;;;;;;;;;;;;;;12.03;53.43;100870.50;5394330;32;34213;-74
2023/01/12 15:11:14;;;;;;;;;;;;;;;11.88;54.51;100864.88;5403697;32;32704;-85
2023/01/12 15:14:20;;;;;;;;;;;;;;;11.09;57.49;100868.53;5398362;32;44435;-74
2023/01/12 15:27:40;;;;;;;;;;;;;;;11.17;56.90;100883.19;5395335;32;33592;-87
2023/01/12 15:30:42;;;;;;;;;;;;;;;10.98;58.26;100883.81;5401294;32;34232;-84
2023/01/12 15:33:44;;;;;;;;;;;;;;;10.75;59.21;100886.31;5398836;32;33149;-85
2023/01/12 15:36:46;;;;;;;;;;;;;;;10.90;58.38;100867.41;5407888;32;43766;-74
2023/01/12 15:39:48;;;;;;;;;;;;;;;10.74;58.87;100879.31;5396035;32;34810;-76
2023/01/12 15:42:51;;;;;;;;;;;;;;;10.42;59.79;100870.69;5407381;32;34307;-75
2023/01/12 15:45:55;;;;;;;;;;;;;;;10.44;60.13;100873.28;5405022;32;33526;-75
2023/01/12 15:48:57;;;;;;;;;;;;;;;10.27;61.08;100881.66;5400372;32;33665;-74
2023/01/12 15:51:59;;;;;;;;;;;;;;;10.42;60.84;100885.59;5394208;32;33787;-73
2023/01/12 15:55:01;;;;;;;;;;;;;;;10.54;60.61;100886.06;5397015;32;33346;-75
2023/01/12 15:58:03;;;;;;;;;;;;;;;10.23;61.71;100890.53;5410164;32;33517;-74
2023/01/12 16:01:09;;;;;;;;;;;;;;;10.47;60.98;100894.19;5391459;32;33115;-74
2023/01/12 16:04:15;;;;;;;;;;;;;;;10.50;60.67;100886.25;5395399;32;34296;-75
2023/01/12 16:07:37;;;;;;;;;;;;;;;10.00;61.96;100878.06;5400200;32;35081;-86
2023/01/12 16:11:07;;;;;;;;;;;;;;;10.54;60.73;100890.47;5398602;32;32973;-74
2023/01/12 16:14:01;;;;;;;;;;;;;;;10.11;62.01;100893.47;5411145;32;34127;-84
2023/01/12 16:17:03;;;;;;;;;;;;;;;10.08;61.97;100890.97;5384601;32;33641;-85
2023/01/12 16:20:05;;;;;;;;;;;;;;;10.61;60.38;100891.13;5408329;32;33572;-75
2023/01/12 16:23:07;;;;;;;;;;;;;;;10.15;61.17;100893.34;5391048;32;35596;-81
2023/01/12 16:26:09;;;;;;;;;;;;;;;10.07;61.96;100895.34;5402986;32;33577;-76
2023/01/12 16:29:12;;;;;;;;;;;;;;;10.09;62.10;100901.41;5404056;32;33066;-87
2023/01/12 16:32:14;;;;;;;;;;;;;;;10.51;60.63;100898.47;5393008;32;33788;-74
2023/01/12 16:35:16;;;;;;;;;;;;;;;9.99;62.13;100897.34;5418108;32;35017;-86
2023/01/12 16:38:18;;;;;;;;;;;;;;;10.24;61.19;100901.03;5401853;32;43894;-73
2023/01/12 16:41:21;;;;;;;;;;;;;;;9.93;62.12;100905.41;5398971;32;32447;-72
2023/01/12 16:44:23;;;;;;;;;;;;;;;9.91;62.29;100900.16;5391165;32;34264;-73
2023/01/12 16:47:25;;;;;;;;;;;;;;;10.27;61.71;100907.94;5404462;32;34081;-85